Time;durP1;ratioP1;P1;durP2;ratioP2;P2;SDS_P1;SDS_P2;PMS_P1;PMS_P2;Temp;Humidity;BMP_temperature;BMP_pressure;BME280_temperature;BME280_humidity;BME280_pressure;Samples;Min_cycle;Max_cycle;Signal;HPM_P1;HPM_P2
2022/06/30 00:01:24;;;;;;;18.00;6.70;;;;;;;23.59;30.18;99649.25;5057547;28;20047;-67
2022/06/30 00:03:50;;;;;;;18.40;6.30;;;;;;;23.62;29.90;99662.31;5057533;28;20094;-68
2022/06/30 00:06:15;;;;;;;17.75;6.78;;;;;;;23.63;29.86;99657.72;5057513;28;20048;-68
2022/06/30 00:08:44;;;;;;;20.63;7.43;;;;;;;23.61;29.61;99646.28;5057804;28;20434;-68
2022/06/30 00:11:10;;;;;;;16.08;7.07;;;;;;;23.64;29.40;99648.53;5074010;28;20048;-68
2022/06/30 00:13:37;;;;;;;17.98;6.93;;;;;;;23.85;29.72;99648.66;5024401;28;20047;-68
2022/06/30 00:16:04;;;;;;;14.40;6.45;;;;;;;23.75;30.20;99640.34;5074068;28;20542;-68
2022/06/30 00:18:31;;;;;;;20.42;6.38;;;;;;;23.75;30.09;99644.94;5023933;28;20495;-68
2022/06/30 00:20:57;;;;;;;13.55;6.80;;;;;;;23.71;29.78;99650.03;5073961;28;20040;-69
2022/06/30 00:23:23;;;;;;;14.40;6.35;;;;;;;23.64;29.66;99635.78;5057309;28;20039;-68
2022/06/30 00:25:49;;;;;;;17.30;5.80;;;;;;;23.61;29.52;99649.84;5057400;28;20051;-71
2022/06/30 00:28:18;;;;;;;13.73;5.90;;;;;;;23.56;29.72;99640.75;5023973;28;20466;-68
2022/06/30 00:30:48;;;;;;;16.27;7.68;;;;;;;23.65;30.21;99642.06;5024504;28;20078;-69
2022/06/30 00:33:14;;;;;;;17.45;6.38;;;;;;;23.57;30.29;99645.13;5039710;28;20562;-68
2022/06/30 00:35:40;;;;;;;14.93;6.15;;;;;;;23.44;30.46;99637.28;5040341;28;20044;-68
2022/06/30 00:38:05;;;;;;;18.60;5.85;;;;;;;23.50;30.19;99655.28;5023531;28;20112;-68
2022/06/30 00:40:38;;;;;;;10.20;5.20;;;;;;;23.65;29.79;99652.91;5073210;28;20047;-68
2022/06/30 00:43:04;;;;;;;9.07;5.18;;;;;;;23.55;29.70;99652.69;5073834;28;20050;-67
2022/06/30 00:45:30;;;;;;;13.02;5.38;;;;;;;23.68;29.92;99641.56;5023715;28;20051;-67
2022/06/30 00:47:56;;;;;;;16.40;5.30;;;;;;;23.68;29.50;99634.22;5073366;28;20036;-67
2022/06/30 00:50:22;;;;;;;10.70;4.18;;;;;;;23.68;29.49;99633.44;5040283;28;20077;-67
2022/06/30 00:52:51;;;;;;;9.13;3.67;;;;;;;23.88;29.09;99639.22;5023661;28;20550;-68
2022/06/30 00:55:19;;;;;;;9.73;4.30;;;;;;;23.86;29.21;99646.78;5073093;28;20040;-68
2022/06/30 00:57:45;;;;;;;7.60;3.17;;;;;;;23.82;28.52;99632.88;5056410;28;20039;-68
2022/06/30 01:00:15;;;;;;;9.82;3.75;;;;;;;23.92;28.63;99629.53;5056662;28;20074;-68
2022/06/30 01:02:40;;;;;;;9.43;4.20;;;;;;;23.72;29.43;99626.44;5056343;28;20050;-68
2022/06/30 01:05:07;;;;;;;12.00;3.63;;;;;;;23.63;28.68;99606.22;5073222;28;20044;-68
2022/06/30 01:07:33;;;;;;;7.97;3.75;;;;;;;23.78;28.64;99631.72;5054847;28;20047;-68
2022/06/30 01:12:46;;;;;;;6.97;3.80;;;;;;;23.88;28.94;99621.03;5058641;28;20082;-68
2022/06/30 01:15:17;;;;;;;10.40;3.70;;;;;;;23.84;28.66;99622.63;5056184;28;20071;-69
2022/06/30 01:17:44;;;;;;;11.57;4.53;;;;;;;23.90;29.12;99624.34;5039483;28;20145;-68
2022/06/30 01:20:10;;;;;;;7.75;4.13;;;;;;;23.92;29.01;99624.94;5091041;28;20089;-68
2022/06/30 01:22:36;;;;;;;6.55;3.92;;;;;;;23.87;29.13;99624.84;5091047;28;20403;-67
2022/06/30 01:25:04;;;;;;;11.98;4.63;;;;;;;23.91;29.42;99625.97;5039335;28;20048;-67
2022/06/30 01:27:30;;;;;;;11.02;4.13;;;;;;;23.91;28.42;99625.97;5072657;28;20040;-68
2022/06/30 01:29:57;;;;;;;8.50;3.97;;;;;;;23.86;28.86;99628.63;5055768;28;20047;-68
2022/06/30 01:32:25;;;;;;;6.53;3.72;;;;;;;24.00;29.06;99621.03;5072801;28;20044;-68
2022/06/30 01:34:50;;;;;;;8.32;4.43;;;;;;;23.79;29.40;99611.66;5072652;28;20043;-68
2022/06/30 01:37:16;;;;;;;9.65;4.40;;;;;;;23.62;29.86;99615.41;5072540;28;20093;-69
2022/06/30 01:39:42;;;;;;;9.73;4.68;;;;;;;23.76;29.76;99611.31;5056127;28;20547;-70
2022/06/30 01:42:08;;;;;;;6.82;3.63;;;;;;;23.86;29.17;99614.22;5056229;28;20044;-68
2022/06/30 01:44:34;;;;;;;10.93;4.72;;;;;;;23.88;29.01;99610.19;5055887;28;20047;-69
2022/06/30 01:46:59;;;;;;;12.02;3.80;;;;;;;24.00;28.35;99615.59;5022613;28;20039;-69
2022/06/30 01:49:25;;;;;;;12.25;4.10;;;;;;;24.00;28.47;99618.31;5054883;28;20052;-68
2022/06/30 01:51:51;;;;;;;8.65;4.43;;;;;;;24.02;28.34;99616.16;5072731;28;20040;-68
2022/06/30 01:54:17;;;;;;;12.57;4.13;;;;;;;24.03;28.61;99607.78;5022840;28;20518;-69
2022/06/30 01:56:43;;;;;;;10.98;4.45;;;;;;;24.05;28.73;99624.63;5023236;28;20044;-67
2022/06/30 01:59:09;;;;;;;12.13;3.80;;;;;;;23.87;29.20;99605.00;5056870;28;20050;-68
2022/06/30 02:01:35;;;;;;;10.20;4.72;;;;;;;23.73;29.30;99598.25;5039394;28;20036;-69
2022/06/30 02:06:46;;;;;;;9.23;4.13;;;;;;;23.77;29.50;99602.94;5058293;28;20040;-69
2022/06/30 02:09:12;;;;;;;8.98;3.97;;;;;;;23.72;29.17;99588.47;5039248;28;20044;-70
2022/06/30 02:11:37;;;;;;;16.88;4.55;;;;;;;23.75;29.86;99596.13;5022698;28;20132;-69
2022/06/30 02:14:03;;;;;;;13.60;5.32;;;;;;;23.74;29.59;99598.00;5039136;28;20058;-68
2022/06/30 02:16:49;;;;;;;20.80;6.70;;;;;;;23.84;30.13;99591.94;5034259;28;20138;-68
2022/06/30 02:19:15;;;;;;;10.23;4.40;;;;;;;23.85;29.36;99597.13;5055548;28;20563;-68
2022/06/30 02:21:41;;;;;;;10.25;6.53;;;;;;;23.85;30.28;99597.13;5089441;28;20090;-68
2022/06/30 02:24:07;;;;;;;15.35;6.90;;;;;;;23.92;30.33;99595.09;5038825;28;20044;-68
2022/06/30 02:26:32;;;;;;;17.63;7.65;;;;;;;23.93;31.12;99595.88;5038896;28;20040;-68
2022/06/30 02:28:58;;;;;;;15.70;7.95;;;;;;;23.91;30.91;99592.63;5055567;28;20044;-68
2022/06/30 02:31:24;;;;;;;17.33;8.05;;;;;;;23.93;31.30;99595.88;5055398;28;20047;-68
2022/06/30 02:33:52;;;;;;;28.17;8.93;;;;;;;23.91;32.24;99595.34;5038676;28;20454;-68
2022/06/30 02:36:17;;;;;;;22.00;8.35;;;;;;;24.02;32.29;99605.31;5072281;28;20393;-68
2022/06/30 02:38:43;;;;;;;20.35;8.63;;;;;;;24.06;32.33;99603.75;5055468;28;20048;-69
2022/06/30 02:41:09;;;;;;;20.25;8.70;;;;;;;23.73;32.42;99563.81;5055154;28;20454;-68
2022/06/30 02:43:35;;;;;;;18.63;9.15;;;;;;;24.10;32.17;99607.63;5038463;28;20074;-68
2022/06/30 02:46:01;;;;;;;18.13;8.65;;;;;;;23.98;32.45;99593.31;5055242;28;20048;-68
2022/06/30 02:48:26;;;;;;;27.77;8.25;;;;;;;23.77;32.04;99577.72;5055071;28;20414;-68
2022/06/30 02:50:52;;;;;;;20.85;9.02;;;;;;;23.90;32.67;99602.63;5055159;28;20129;-68
2022/06/30 02:53:18;;;;;;;18.45;7.95;;;;;;;23.93;32.77;99590.47;5055107;28;20044;-68
2022/06/30 02:55:44;;;;;;;17.35;7.95;;;;;;;24.00;32.47;99594.69;5038897;28;20075;-68
2022/06/30 02:58:10;;;;;;;15.18;8.05;;;;;;;24.03;32.72;99601.53;5055404;28;20040;-69
2022/06/30 03:00:35;;;;;;;18.98;8.43;;;;;;;24.04;32.91;99603.19;5022800;28;20380;-68
2022/06/30 03:03:01;;;;;;;23.83;8.98;;;;;;;24.08;33.10;99593.50;5058413;28;20067;-68
2022/06/30 03:05:27;;;;;;;22.35;8.23;;;;;;;24.12;33.46;99609.03;5025462;28;20040;-68
2022/06/30 03:07:53;;;;;;;26.35;9.35;;;;;;;24.14;33.24;99608.78;5058725;28;20170;-68
2022/06/30 03:10:18;;;;;;;18.63;9.23;;;;;;;24.15;33.21;99607.72;5058484;28;20071;-68
2022/06/30 03:12:44;;;;;;;17.23;8.45;;;;;;;24.23;34.34;99607.31;5058988;28;20126;-68
2022/06/30 03:15:10;;;;;;;24.65;9.02;;;;;;;24.36;34.23;99612.38;5025615;28;20109;-70
2022/06/30 03:17:36;;;;;;;21.65;9.07;;;;;;;24.41;33.86;99599.72;5075616;28;20051;-68
2022/06/30 03:20:02;;;;;;;23.45;9.65;;;;;;;24.72;33.24;99606.47;5041894;28;20043;-67
2022/06/30 03:22:29;;;;;;;21.23;8.60;;;;;;;24.62;33.62;99604.38;5093078;28;20044;-68
2022/06/30 03:24:54;;;;;;;20.10;9.50;;;;;;;24.69;31.88;99604.25;5075042;28;20043;-67
2022/06/30 03:27:20;;;;;;;23.77;9.23;;;;;;;24.72;32.08;99607.28;5058359;28;20040;-67
2022/06/30 03:29:46;;;;;;;18.80;9.30;;;;;;;24.75;31.83;99595.09;5025417;28;20043;-67
2022/06/30 03:32:12;;;;;;;24.00;9.68;;;;;;;24.96;31.63;99601.63;5025121;28;20046;-67
2022/06/30 03:34:37;;;;;;;25.80;9.65;;;;;;;25.03;31.85;99597.66;5041413;28;20047;-68
2022/06/30 03:37:05;;;;;;;32.72;9.63;;;;;;;25.10;31.41;99598.28;5025073;28;20051;-68
2022/06/30 03:39:30;;;;;;;27.50;8.77;;;;;;;25.16;31.27;99594.56;5057918;28;20138;-68
2022/06/30 03:41:56;;;;;;;28.98;8.55;;;;;;;25.12;32.13;99604.31;5074738;28;20556;-68
2022/06/30 03:44:22;;;;;;;27.58;8.50;;;;;;;25.58;32.28;99592.91;5058193;28;20093;-67
2022/06/30 03:46:48;;;;;;;26.45;8.23;;;;;;;26.35;31.15;99596.88;5041624;28;20052;-68
2022/06/30 03:49:15;;;;;;;22.63;7.72;;;;;;;26.97;29.63;99599.75;5057953;28;20155;-67
2022/06/30 03:51:40;;;;;;;18.30;7.80;;;;;;;27.43;29.06;99603.56;5041460;28;20044;-68
2022/06/30 03:54:06;;;;;;;31.05;8.07;;;;;;;27.69;28.39;99605.25;5024696;28;20051;-69
2022/06/30 03:56:32;;;;;;;33.50;10.00;;;;;;;27.87;27.89;99600.13;5024637;28;20068;-69
2022/06/30 03:58:58;;;;;;;50.80;12.50;;;;;;;28.10;27.90;99612.44;5057409;28;20044;-69
2022/06/30 04:01:24;;;;;;;31.48;9.68;;;;;;;28.13;27.67;99598.25;5041133;28;20046;-69
2022/06/30 04:03:50;;;;;;;28.80;9.40;;;;;;;28.20;28.31;99606.97;5057878;28;20055;-71
2022/06/30 04:06:15;;;;;;;28.42;8.65;;;;;;;28.24;28.07;99610.81;5057859;28;20036;-69
2022/06/30 04:08:41;;;;;;;28.95;8.93;;;;;;;28.26;28.08;99611.38;5024478;28;20558;-71
2022/06/30 04:11:08;;;;;;;33.80;8.88;;;;;;;28.25;28.01;99601.50;5057427;28;20044;-71
2022/06/30 04:13:35;;;;;;;29.38;8.75;;;;;;;28.25;28.52;99615.16;5039484;28;20085;-71
2022/06/30 04:16:01;;;;;;;36.75;10.55;;;;;;;28.25;28.42;99595.25;5040970;28;20147;-70
2022/06/30 04:18:26;;;;;;;28.42;7.97;;;;;;;28.42;27.55;99609.41;5024190;28;20050;-70
2022/06/30 04:20:54;;;;;;;20.13;7.68;;;;;;;28.47;28.01;99604.00;5024341;28;20048;-70
2022/06/30 04:23:20;;;;;;;25.05;8.13;;;;;;;28.54;26.97;99610.00;5074031;28;20097;-71
2022/06/30 04:25:46;;;;;;;28.50;7.47;;;;;;;28.61;26.65;99591.41;5091456;28;20117;-71
2022/06/30 04:28:14;;;;;;;26.30;7.50;;;;;;;28.93;26.38;99600.06;5040536;28;20495;-69
2022/06/30 04:33:24;;;;;;;26.38;7.20;;;;;;;29.20;25.66;99604.09;5059719;28;20078;-67
2022/06/30 04:35:53;;;;;;;26.92;7.85;;;;;;;29.31;25.65;99602.13;5074381;28;20052;-69
2022/06/30 04:38:19;;;;;;;30.40;7.15;;;;;;;29.29;25.79;99604.34;5023851;28;20048;-68
2022/06/30 04:43:29;;;;;;;24.73;7.53;;;;;;;29.49;25.36;99596.06;5059283;28;20040;-68
2022/06/30 04:45:56;;;;;;;17.13;6.63;;;;;;;29.32;24.51;99599.13;5073553;28;20040;-69
2022/06/30 04:48:21;;;;;;;17.15;6.15;;;;;;;29.56;24.22;99594.63;5050761;28;21046;-69
2022/06/30 04:50:47;;;;;;;20.95;6.13;;;;;;;29.89;22.98;99589.53;5075639;28;20048;-69
2022/06/30 04:53:13;;;;;;;9.82;4.40;;;;;;;29.92;21.65;99587.03;5072596;28;20471;-69
2022/06/30 04:55:42;;;;;;;10.75;4.50;;;;;;;30.09;21.48;99578.41;5055416;28;20507;-69
2022/06/30 04:58:07;;;;;;;15.10;4.10;;;;;;;30.23;20.81;99593.13;5071551;28;20074;-70
2022/06/30 05:00:33;;;;;;;15.68;4.20;;;;;;;30.35;20.84;99582.59;5038277;28;20101;-70
2022/06/30 05:02:59;;;;;;;19.48;3.83;;;;;;;30.40;20.28;99580.63;5071000;28;20048;-70
2022/06/30 05:05:26;;;;;;;7.78;2.80;;;;;;;30.42;19.58;99564.72;5089864;28;20054;-70
2022/06/30 05:07:52;;;;;;;11.02;2.53;;;;;;;30.46;19.56;99584.16;5056100;28;20492;-70
2022/06/30 05:10:17;;;;;;;7.97;2.35;;;;;;;30.19;19.83;99584.63;5054961;28;20066;-68
2022/06/30 05:12:43;;;;;;;13.57;2.33;;;;;;;29.71;20.31;99552.66;5054878;28;20063;-69
2022/06/30 05:15:09;;;;;;;14.05;2.00;;;;;;;29.68;20.52;99579.81;5055178;28;20415;-70
2022/06/30 05:17:35;;;;;;;5.40;1.95;;;;;;;29.47;20.62;99570.88;5072622;28;20510;-69
2022/06/30 05:20:02;;;;;;;6.18;1.80;;;;;;;29.40;20.96;99578.56;5055224;28;20048;-70
2022/06/30 05:22:29;;;;;;;6.53;1.92;;;;;;;29.10;21.13;99576.81;5055733;28;20044;-70
2022/06/30 05:27:39;;;;;;;12.63;1.70;;;;;;;29.78;20.07;99571.53;5076052;28;20035;-69
2022/06/30 05:30:05;;;;;;;6.25;1.92;;;;;;;30.01;19.10;99565.31;5090506;28;20556;-70
2022/06/30 05:32:31;;;;;;;7.47;1.60;;;;;;;30.26;18.85;99565.16;5074284;28;20036;-69
2022/06/30 05:34:57;;;;;;;6.88;1.63;;;;;;;30.80;18.97;99580.25;5074140;28;20039;-70
2022/06/30 05:37:23;;;;;;;9.13;1.73;;;;;;;30.99;18.19;99574.81;5075496;28;20043;-70
2022/06/30 05:39:48;;;;;;;4.32;1.50;;;;;;;31.02;17.99;99577.81;5091678;28;20070;-71
2022/06/30 05:42:14;;;;;;;5.90;1.85;;;;;;;31.29;17.27;99576.38;5073840;28;20039;-70
2022/06/30 05:44:40;;;;;;;3.78;1.40;;;;;;;31.55;17.83;99580.44;5073951;28;20039;-71
2022/06/30 05:47:06;;;;;;;4.93;1.65;;;;;;;31.67;17.41;99578.06;5074844;28;20040;-70
2022/06/30 05:49:31;;;;;;;4.13;1.58;;;;;;;31.78;16.96;99579.56;5091631;28;20043;-71
2022/06/30 05:51:57;;;;;;;8.27;1.73;;;;;;;31.88;17.32;99583.00;5092145;28;20044;-70
2022/06/30 05:54:23;;;;;;;4.32;1.50;;;;;;;31.83;17.06;99566.56;5075581;28;20147;-70
2022/06/30 05:56:48;;;;;;;3.63;1.48;;;;;;;31.98;16.66;99573.78;5075387;28;20135;-70
2022/06/30 05:59:14;;;;;;;2.92;1.50;;;;;;;32.06;16.70;99567.59;5074931;28;20047;-70
2022/06/30 06:01:40;;;;;;;5.95;1.38;;;;;;;31.96;16.85;99559.50;5075365;28;20040;-70
2022/06/30 06:04:06;;;;;;;6.70;1.30;;;;;;;32.10;16.84;99561.22;5090130;28;20077;-70
2022/06/30 06:06:32;;;;;;;2.90;1.08;;;;;;;32.19;16.89;99577.81;5069091;28;20736;-70
2022/06/30 06:08:57;;;;;;;6.72;1.17;;;;;;;32.10;16.91;99555.72;5074651;28;20047;-70
2022/06/30 06:11:23;;;;;;;4.15;1.20;;;;;;;32.19;16.55;99553.91;5091025;28;20414;-70
2022/06/30 06:13:49;;;;;;;3.25;1.30;;;;;;;32.26;16.25;99570.81;5088786;28;20035;-70
2022/06/30 06:16:15;;;;;;;4.10;1.10;;;;;;;32.20;16.39;99565.69;5086644;28;20072;-70
2022/06/30 06:18:40;;;;;;;7.53;1.30;;;;;;;31.99;16.54;99570.72;5071190;28;20052;-70
2022/06/30 06:21:06;;;;;;;13.00;1.63;;;;;;;31.75;16.68;99548.00;5088930;28;20044;-70
2022/06/30 06:23:32;;;;;;;8.27;1.30;;;;;;;31.57;16.81;99576.28;5070374;28;20074;-70
2022/06/30 06:25:57;;;;;;;7.05;1.30;;;;;;;31.35;16.58;99572.47;5088694;28;20036;-70
2022/06/30 06:31:07;;;;;;;6.32;1.55;;;;;;;31.22;17.18;99565.75;5054019;28;20168;-70
2022/06/30 06:33:34;;;;;;;4.80;1.27;;;;;;;31.20;17.08;99564.41;5071494;28;20466;-70
2022/06/30 06:36:02;;;;;;;6.72;1.20;;;;;;;31.29;16.69;99566.25;5056387;28;20063;-70
2022/06/30 06:38:28;;;;;;;6.20;1.27;;;;;;;31.03;16.45;99557.47;5075201;28;20091;-69
2022/06/30 06:40:57;;;;;;;8.00;1.25;;;;;;;31.07;16.69;99555.81;5041649;28;20067;-73
2022/06/30 06:43:23;;;;;;;4.97;1.30;;;;;;;31.07;16.82;99569.53;5075616;28;20139;-70
2022/06/30 06:45:48;;;;;;;20.65;1.85;;;;;;;30.92;16.87;99538.72;5075008;28;20040;-70
2022/06/30 06:48:14;;;;;;;4.55;1.17;;;;;;;31.07;16.53;99569.53;5058428;28;20080;-69
2022/06/30 06:50:40;;;;;;;5.80;1.60;;;;;;;31.11;16.72;99558.75;5041023;28;20046;-70
2022/06/30 06:53:08;;;;;;;5.95;1.55;;;;;;;31.09;16.35;99556.31;5074328;28;20058;-70
2022/06/30 06:55:34;;;;;;;5.07;1.77;;;;;;;31.16;16.60;99564.19;5041524;28;20039;-70
2022/06/30 06:58:00;;;;;;;5.72;1.40;;;;;;;31.07;15.43;99555.81;5091811;28;20043;-70
2022/06/30 07:00:26;;;;;;;2.67;1.20;;;;;;;31.16;15.06;99553.22;5041055;28;20040;-70
2022/06/30 07:02:52;;;;;;;10.32;1.20;;;;;;;31.27;14.87;99545.66;5074190;28;20093;-71
2022/06/30 07:05:17;;;;;;;5.18;1.08;;;;;;;31.24;14.41;99538.84;5088321;28;20116;-71
2022/06/30 07:07:43;;;;;;;2.58;1.33;;;;;;;31.38;13.89;99542.53;5094500;28;20054;-70
2022/06/30 07:10:09;;;;;;;4.32;1.17;;;;;;;31.45;13.47;99536.63;5094342;28;20062;-72
2022/06/30 07:12:35;;;;;;;9.70;1.30;;;;;;;31.34;13.86;99530.47;5059842;28;20046;-71
2022/06/30 07:15:04;;;;;;;11.25;3.08;;;;;;;31.46;14.60;99510.84;5093440;28;20048;-71
2022/06/30 07:17:37;;;;;;;12.57;1.80;;;;;;;31.86;12.85;99548.69;5077177;28;20035;-73
2022/06/30 07:20:03;;;;;;;6.78;1.30;;;;;;;32.02;12.00;99550.91;5039384;28;20044;-71
2022/06/30 07:22:29;;;;;;;3.63;1.30;;;;;;;32.21;11.99;99548.91;5056687;28;20044;-72
2022/06/30 07:24:54;;;;;;;11.30;1.40;;;;;;;32.84;11.16;99545.56;5072201;28;20586;-73
2022/06/30 07:27:21;;;;;;;7.85;1.50;;;;;;;33.22;10.74;99538.75;5073931;28;20044;-71
2022/06/30 07:29:47;;;;;;;3.63;1.00;;;;;;;33.98;10.06;99544.97;5090316;28;20036;-71
2022/06/30 07:32:13;;;;;;;4.03;1.20;;;;;;;34.36;9.61;99545.41;5071348;28;20407;-70
2022/06/30 07:34:39;;;;;;;4.20;1.40;;;;;;;35.06;9.46;99549.00;5073652;28;20043;-71
2022/06/30 07:37:05;;;;;;;9.65;1.42;;;;;;;35.93;9.45;99559.91;5057451;28;20043;-72
2022/06/30 07:39:30;;;;;;;4.85;1.40;;;;;;;36.94;8.50;99552.53;5072819;28;20078;-72
2022/06/30 07:42:05;;;;;;;4.30;1.35;;;;;;;38.16;8.55;99560.50;5042988;28;20067;-72
2022/06/30 07:44:31;;;;;;;2.60;1.27;;;;;;;39.67;7.04;99554.53;5057608;28;20086;-71
2022/06/30 07:46:57;;;;;;;7.10;1.52;;;;;;;41.46;5.92;99564.94;5056330;28;20093;-71
2022/06/30 07:49:23;;;;;;;8.23;1.30;;;;;;;43.19;4.96;99547.66;5074232;28;20047;-72
2022/06/30 07:51:49;;;;;;;8.52;1.70;;;;;;;45.28;4.15;99560.91;5073611;28;20044;-72
2022/06/30 07:54:15;;;;;;;8.73;1.50;;;;;;;47.16;3.29;99545.91;5073459;28;20439;-71
2022/06/30 07:56:41;;;;;;;10.57;1.10;;;;;;;49.17;2.62;99556.16;5073527;28;20047;-71
2022/06/30 07:59:07;;;;;;;2.58;1.00;;;;;;;50.53;1.85;99554.50;5091468;28;20040;-71
2022/06/30 08:01:33;;;;;;;5.53;1.25;;;;;;;51.31;1.55;99541.91;5073050;28;20479;-71
2022/06/30 08:03:58;;;;;;;4.80;1.60;;;;;;;52.04;1.21;99536.00;5073909;28;20036;-72
2022/06/30 08:06:24;;;;;;;3.15;1.05;;;;;;;52.64;1.25;99538.28;5056957;28;20079;-77
2022/06/30 08:08:51;;;;;;;3.95;1.05;;;;;;;52.94;0.93;99526.53;5073136;28;20047;-73
2022/06/30 08:11:17;;;;;;;5.28;1.45;;;;;;;53.55;0.94;99523.69;5072867;28;20074;-73
2022/06/30 08:13:43;;;;;;;2.83;1.08;;;;;;;54.09;0.52;99541.56;5055230;28;20091;-70
2022/06/30 08:16:10;;;;;;;6.75;1.20;;;;;;;54.40;0.32;99491.44;5082619;28;20052;-71
2022/06/30 08:18:36;;;;;;;7.38;1.20;;;;;;;54.97;0.14;99519.59;5072626;28;20106;-73
2022/06/30 08:21:02;;;;;;;4.28;1.50;;;;;;;55.41;0.34;99524.13;5073136;28;20552;-70
2022/06/30 08:23:27;;;;;;;2.30;1.00;;;;;;;55.65;0.10;99518.78;5056332;28;20052;-72
2022/06/30 08:25:53;;;;;;;3.55;1.20;;;;;;;55.78;0.24;99516.66;5073444;28;20044;-73
2022/06/30 08:28:20;;;;;;;2.78;0.80;;;;;;;56.20;0.00;99506.44;5073538;28;20047;-70
2022/06/30 08:30:48;;;;;;;3.50;1.00;;;;;;;56.79;0.00;99513.81;5056375;28;20051;-71
2022/06/30 08:33:16;;;;;;;5.57;1.30;;;;;;;56.92;0.00;99500.16;5072722;28;20224;-71
2022/06/30 08:35:41;;;;;;;6.25;1.10;;;;;;;57.39;0.00;99504.16;5090987;28;20048;-71
2022/06/30 08:38:07;;;;;;;2.40;0.90;;;;;;;58.11;0.00;99506.09;5039452;28;20506;-72
2022/06/30 08:43:19;;;;;;;3.70;0.98;;;;;;;58.79;0.00;99496.53;5090570;28;20048;-71
2022/06/30 08:45:45;;;;;;;6.72;1.10;;;;;;;59.19;0.00;99481.78;5072664;28;20156;-73
2022/06/30 08:48:11;;;;;;;4.63;1.20;;;;;;;59.61;0.00;99490.94;5056557;28;20193;-71
2022/06/30 08:50:37;;;;;;;7.47;1.50;;;;;;;60.07;0.00;99485.50;5073192;28;20057;-76
2022/06/30 08:53:03;;;;;;;11.63;1.70;;;;;;;60.26;0.00;99466.75;5090036;28;20051;-72
2022/06/30 08:55:31;;;;;;;20.38;2.47;;;;;;;60.48;0.00;99472.84;5073026;28;20044;-74
2022/06/30 08:58:08;;;;;;;8.25;1.15;;;;;;;60.68;0.00;99470.00;5055966;28;20389;-74
2022/06/30 09:00:37;;;;;;;6.55;1.10;;;;;;;60.86;0.00;99463.94;5072605;28;20089;-73
2022/06/30 09:03:03;;;;;;;4.95;1.02;;;;;;;61.05;0.00;99471.00;5072629;28;20039;-71
2022/06/30 09:05:29;;;;;;;4.07;1.17;;;;;;;60.91;0.00;99468.97;5090063;28;20523;-70
2022/06/30 09:07:55;;;;;;;7.32;1.30;;;;;;;61.11;0.00;99468.97;5074511;28;20121;-71
2022/06/30 09:10:22;;;;;;;10.27;1.20;;;;;;;61.32;0.00;99467.66;5058195;28;20116;-71
2022/06/30 09:13:01;;;;;;;8.63;1.30;;;;;;;61.46;0.00;99466.75;5091249;28;20061;-71
2022/06/30 09:15:31;;;;;;;10.20;1.17;;;;;;;61.67;0.00;99462.50;5090643;28;20446;-72
2022/06/30 09:18:01;;;;;;;6.15;1.13;;;;;;;61.58;0.00;99467.66;5008038;28;20499;-72
2022/06/30 09:20:38;;;;;;;7.40;1.13;;;;;;;61.49;0.00;99453.41;5074905;28;20047;-72
2022/06/30 09:23:23;;;;;;;9.85;1.25;;;;;;;61.43;0.00;99459.13;5057016;28;20055;-71
2022/06/30 09:25:54;;;;;;;4.95;1.48;;;;;;;61.54;0.00;99467.91;5073026;28;20130;-71
2022/06/30 09:28:46;;;;;;;6.45;1.42;;;;;;;61.38;0.00;99459.88;5055995;28;20391;-69
2022/06/30 09:31:14;;;;;;;3.58;1.02;;;;;;;61.50;0.00;99464.44;5072624;28;20047;-71
2022/06/30 09:33:41;;;;;;;7.43;1.20;;;;;;;61.77;0.00;99461.03;5055237;28;20051;-71
2022/06/30 09:36:26;;;;;;;2.63;1.00;;;;;;;62.05;0.00;99443.19;5055341;28;20040;-70
2022/06/30 09:38:58;;;;;;;6.10;1.15;;;;;;;62.34;0.00;99454.41;5072297;28;20051;-70
2022/06/30 09:41:28;;;;;;;7.13;1.42;;;;;;;62.41;0.00;99434.56;5055490;28;20044;-69
2022/06/30 09:43:54;;;;;;;12.40;1.20;;;;;;;62.65;0.00;99443.59;5054888;28;20465;-72
2022/06/30 09:46:21;;;;;;;14.48;1.20;;;;;;;62.86;0.00;99458.59;5072078;28;20068;-71
2022/06/30 09:48:47;;;;;;;2.78;1.10;;;;;;;62.89;0.00;99441.09;5055263;28;20036;-71
2022/06/30 09:51:13;;;;;;;6.85;1.15;;;;;;;63.15;0.00;99449.53;5022076;28;20530;-73
2022/06/30 09:53:39;;;;;;;7.15;1.40;;;;;;;63.21;0.00;99445.38;5054699;28;20112;-71
2022/06/30 09:56:14;;;;;;;5.05;1.20;;;;;;;63.11;0.00;99435.38;5071516;28;20488;-72
2022/06/30 09:58:44;;;;;;;7.32;1.35;;;;;;;62.79;0.00;99425.28;5072002;28;20040;-72
2022/06/30 10:01:10;;;;;;;8.40;1.10;;;;;;;62.61;0.00;99433.63;5071586;28;20064;-69
2022/06/30 10:03:47;;;;;;;9.10;1.50;;;;;;;62.56;0.00;99422.84;5054847;28;20051;-72
2022/06/30 10:06:17;;;;;;;7.15;1.40;;;;;;;62.41;0.00;99425.91;5054863;28;20069;-70
2022/06/30 10:08:43;;;;;;;3.90;1.10;;;;;;;62.26;0.00;99425.28;5038713;28;20526;-70
2022/06/30 10:11:10;;;;;;;10.95;1.50;;;;;;;61.93;0.00;99414.34;5040350;28;20143;-72
2022/06/30 10:13:38;;;;;;;11.60;1.48;;;;;;;61.97;0.00;99413.31;5041923;28;20048;-72
2022/06/30 10:16:06;;;;;;;5.90;1.50;;;;;;;61.81;0.00;99395.44;5075549;28;20060;-71
2022/06/30 10:18:39;;;;;;;5.38;1.42;;;;;;;61.83;0.00;99398.59;5076604;28;20052;-71
2022/06/30 10:21:08;;;;;;;11.13;1.73;;;;;;;61.80;0.00;99396.75;5075754;28;20071;-71
2022/06/30 10:23:35;;;;;;;13.95;1.80;;;;;;;61.68;0.00;99397.94;5056768;28;20036;-71
2022/06/30 10:26:02;;;;;;;8.23;1.20;;;;;;;61.53;0.00;99396.50;5042070;28;20079;-72
2022/06/30 10:28:29;;;;;;;12.55;1.40;;;;;;;61.55;0.00;99383.19;5059163;28;20040;-71
2022/06/30 10:31:15;;;;;;;5.03;1.40;;;;;;;61.43;0.00;99398.75;5058289;28;20076;-72
2022/06/30 10:34:08;;;;;;;5.47;1.13;;;;;;;61.14;0.00;99387.50;5074811;28;20152;-72
2022/06/30 10:36:49;;;;;;;12.07;1.45;;;;;;;61.00;0.00;99387.59;5075599;28;20046;-71
2022/06/30 10:39:21;;;;;;;6.68;1.27;;;;;;;60.71;0.00;99391.44;5058525;28;20044;-72
2022/06/30 10:41:48;;;;;;;9.45;1.10;;;;;;;60.32;0.00;99387.25;5075104;28;20072;-71
2022/06/30 10:44:24;;;;;;;6.75;1.55;;;;;;;59.85;0.00;99388.41;5025154;28;20254;-71
2022/06/30 10:46:56;;;;;;;11.13;1.50;;;;;;;59.44;0.00;99377.25;5075039;28;20656;-70
2022/06/30 10:49:26;;;;;;;5.00;1.40;;;;;;;59.39;0.00;99370.13;5075310;28;20097;-70
2022/06/30 10:51:56;;;;;;;4.03;1.20;;;;;;;58.82;0.00;99378.13;5058154;28;20040;-71
2022/06/30 10:54:31;;;;;;;4.82;1.30;;;;;;;58.40;0.00;99377.50;5058067;28;20051;-71
2022/06/30 10:56:58;;;;;;;5.07;0.98;;;;;;;57.93;0.00;99373.81;5074981;28;20051;-70
2022/06/30 10:59:37;;;;;;;6.43;1.30;;;;;;;57.45;0.00;99350.00;5058498;28;20046;-71
2022/06/30 11:02:11;;;;;;;8.35;1.17;;;;;;;57.06;0.00;99363.25;5058060;28;20047;-71
2022/06/30 11:04:48;;;;;;;8.43;1.20;;;;;;;56.08;0.00;99348.44;5074743;28;20044;-71
2022/06/30 11:07:23;;;;;;;8.23;1.40;;;;;;;54.62;0.00;99345.16;5058243;28;20040;-71
2022/06/30 11:09:54;;;;;;;4.32;1.10;;;;;;;53.19;0.28;99327.94;5058326;28;20084;-71
2022/06/30 11:12:31;;;;;;;7.25;1.23;;;;;;;51.73;0.95;99337.13;5073837;28;20089;-71
2022/06/30 11:14:58;;;;;;;5.68;1.35;;;;;;;50.01;1.79;99324.34;5057225;28;20062;-72
2022/06/30 11:17:26;;;;;;;8.30;1.27;;;;;;;48.91;2.35;99337.56;5024941;28;20040;-71
2022/06/30 11:20:08;;;;;;;7.85;1.20;;;;;;;47.93;2.66;99341.31;5041292;28;20127;-72
2022/06/30 11:22:34;;;;;;;11.43;1.60;;;;;;;46.69;3.36;99323.38;5074166;28;20048;-71
2022/06/30 11:25:06;;;;;;;4.93;1.10;;;;;;;46.03;3.62;99330.66;5074340;28;20097;-71
2022/06/30 11:27:33;;;;;;;4.25;1.23;;;;;;;45.44;4.04;99336.97;5092728;28;20048;-70
2022/06/30 11:30:07;;;;;;;4.65;1.60;;;;;;;44.92;4.34;99329.13;5041943;28;20347;-71
2022/06/30 11:32:34;;;;;;;5.15;1.70;;;;;;;44.35;4.61;99320.34;5057417;28;20048;-71
2022/06/30 11:35:15;;;;;;;5.78;1.30;;;;;;;43.96;4.87;99319.22;5091712;28;20048;-72
2022/06/30 11:37:40;;;;;;;8.48;1.98;;;;;;;43.31;5.37;99314.50;5040701;28;20402;-70
2022/06/30 11:40:09;;;;;;;4.05;1.63;;;;;;;43.09;5.43;99314.28;5073745;28;20105;-71
2022/06/30 11:42:36;;;;;;;2.65;1.40;;;;;;;42.66;5.93;99294.47;5057765;28;20126;-70
2022/06/30 11:45:02;;;;;;;10.02;1.60;;;;;;;42.43;6.09;99318.88;5057170;28;20036;-71
2022/06/30 11:47:30;;;;;;;6.40;1.50;;;;;;;41.95;6.05;99297.38;5057705;28;20040;-71
2022/06/30 11:49:58;;;;;;;5.53;1.50;;;;;;;41.91;6.69;99307.66;5036813;28;20105;-72
2022/06/30 11:52:32;;;;;;;12.68;1.60;;;;;;;41.33;6.77;99321.72;5073927;28;20093;-71